Terminal Aerodrome Forecast
Issued by NWS Omaha/Valley, NE

Home | Current Version | Previous Version | Text Only | Print | Product List | Glossary On
Versions: 1 2 3 4 5 6 7 8 9 10 11 12 13 14 15 16 17 18 19 20 21
000
FTUS43 KOAX 271120
TAFOMA
TAF
KOMA 271120Z 2712/2812 VRB04KT P6SM SKC
     FM271600 31008KT P6SM FEW250
     FM271900 30012KT P6SM FEW040 SCT250
     FM280200 35004KT P6SM SKC=

USA.gov is the U.S. government's official web portal to all federal, state and local government web resources and services.